Main page
Satellite images Climate Cyclones Lightning AirportsFAQ Languages Contact Newsletter About
Weather : Europe Africa North America South America Asia Australia-Oceania Others

5594, Hanoi, Noi Bai International Airport

latitude: , longitude: Vietnam, elevation: 21-01N m


METAR: VVNB 221030Z 34003KT CAVOK 19/12 Q1018 NOSIG